Time;durP1;ratioP1;P1;durP2;ratioP2;P2;SDS_P1;SDS_P2;PMS_P1;PMS_P2;Temp;Humidity;BMP_temperature;BMP_pressure;BME280_temperature;BME280_humidity;BME280_pressure;Samples;Min_cycle;Max_cycle;Signal;HPM_P1;HPM_P2
2021/07/04 00:01:04;;;;;;;;;11.75;11.75;;;;;22.18;81.25;100219.50;4985438;28;8855;-77
2021/07/04 00:04:01;;;;;;;;;12.00;12.00;;;;;22.19;78.52;100221.09;4980460;28;8952;-77
2021/07/04 00:06:56;;;;;;;;;11.80;11.60;;;;;22.35;78.62;100218.47;4977614;28;8849;-78
2021/07/04 00:09:53;;;;;;;;;10.00;10.00;;;;;22.63;78.38;100211.66;4976481;28;8852;-77
2021/07/04 00:12:50;;;;;;;;;11.80;10.60;;;;;22.46;77.06;100199.41;4963656;28;8859;-78
2021/07/04 00:15:48;;;;;;;;;8.40;8.40;;;;;22.54;78.09;100193.66;4976871;28;9659;-78
2021/07/04 00:18:43;;;;;;;;;11.40;11.20;;;;;22.04;78.13;100195.09;4976710;28;8895;-78
2021/07/04 00:21:39;;;;;;;;;10.00;10.00;;;;;22.38;79.20;100189.44;4976697;28;9640;-77
2021/07/04 00:24:35;;;;;;;;;10.60;10.60;;;;;22.37;78.23;100192.69;4979459;28;8872;-77
2021/07/04 00:27:31;;;;;;;;;13.00;13.00;;;;;22.45;78.27;100197.81;4996226;28;8835;-78
2021/07/04 00:30:27;;;;;;;;;9.80;9.80;;;;;22.38;78.46;100192.25;4982711;28;8873;-77
2021/07/04 00:33:22;;;;;;;;;13.40;12.60;;;;;22.33;76.78;100198.41;4987530;28;8869;-78
2021/07/04 00:36:18;;;;;;;;;11.40;9.60;;;;;22.02;78.00;100203.19;4992812;28;8920;-78
2021/07/04 00:39:14;;;;;;;;;10.20;10.20;;;;;22.06;79.83;100209.56;4982494;28;8846;-78
2021/07/04 00:42:13;;;;;;;;;9.60;9.60;;;;;22.04;81.55;100209.19;4978692;28;8858;-77
2021/07/04 00:45:16;;;;;;;;;10.60;10.60;;;;;22.08;78.83;100214.78;4987607;28;9597;-78
2021/07/04 00:48:13;;;;;;;;;11.00;11.00;;;;;21.68;79.24;100213.63;4977769;28;8837;-77
2021/07/04 00:51:09;;;;;;;;;14.00;14.00;;;;;21.27;80.85;100217.19;4943795;28;8889;-77
2021/07/04 00:54:05;;;;;;;;;10.20;10.20;;;;;21.79;80.98;100217.94;4957442;28;8854;-78
2021/07/04 00:57:01;;;;;;;;;9.40;9.40;;;;;21.57;79.51;100214.53;4947872;28;8878;-77
2021/07/04 00:59:56;;;;;;;;;8.00;8.00;;;;;21.73;78.61;100216.78;4959079;28;8846;-77
2021/07/04 01:02:52;;;;;;;;;9.00;8.40;;;;;21.98;77.28;100212.88;4996880;28;8846;-78
2021/07/04 01:05:49;;;;;;;;;9.80;9.80;;;;;22.31;76.54;100212.06;4994903;28;8984;-77
2021/07/04 01:08:44;;;;;;;;;7.00;7.00;;;;;22.48;77.12;100211.06;4964252;28;8861;-77
2021/07/04 01:11:41;;;;;;;;;6.40;6.40;;;;;22.23;75.47;100216.22;4982777;28;8850;-78
2021/07/04 01:14:37;;;;;;;;;10.60;6.20;;;;;22.07;75.59;100213.16;4983227;28;8839;-77
2021/07/04 01:17:34;;;;;;;;;6.60;6.60;;;;;22.12;76.38;100224.00;4994870;28;9635;-77
2021/07/04 01:20:30;;;;;;;;;4.60;4.60;;;;;22.06;74.02;100223.63;4996449;28;9599;-76
2021/07/04 01:23:29;;;;;;;;;7.40;7.40;;;;;22.30;74.61;100224.56;4995091;28;8897;-77
2021/07/04 01:26:27;;;;;;;;;6.00;6.00;;;;;22.40;76.48;100229.28;4994874;28;8917;-76
2021/07/04 01:29:22;;;;;;;;;5.80;5.80;;;;;22.26;76.65;100225.84;4975647;28;8853;-76
2021/07/04 01:32:18;;;;;;;;;7.00;7.00;;;;;22.16;77.53;100217.13;4974964;28;8845;-77
2021/07/04 01:35:13;;;;;;;;;7.40;6.80;;;;;22.28;78.06;100217.78;4974645;28;8844;-77
2021/07/04 01:38:09;;;;;;;;;7.80;7.60;;;;;22.23;75.72;100221.84;4975964;28;8863;-77
2021/07/04 01:41:05;;;;;;;;;7.60;7.60;;;;;22.25;75.28;100230.69;4962425;28;8848;-77
2021/07/04 01:44:01;;;;;;;;;7.80;6.60;;;;;21.99;75.53;100234.97;4963577;28;8962;-76
2021/07/04 01:46:56;;;;;;;;;7.80;7.00;;;;;21.85;76.79;100237.94;4974839;28;8836;-77
2021/07/04 01:49:52;;;;;;;;;7.40;7.40;;;;;21.64;79.08;100231.34;4986202;28;8873;-78
2021/07/04 01:52:48;;;;;;;;;7.20;6.80;;;;;21.75;79.42;100234.03;4993989;28;8851;-77
2021/07/04 01:55:44;;;;;;;;;7.00;7.00;;;;;21.74;79.15;100224.00;4962210;28;8843;-76
2021/07/04 01:58:41;;;;;;;;;6.60;6.60;;;;;21.48;80.15;100219.06;4954731;28;8965;-77
2021/07/04 02:01:36;;;;;;;;;8.00;8.00;;;;;21.65;80.59;100215.25;4956855;28;9639;-77
2021/07/04 02:04:40;;;;;;;;;6.20;6.20;;;;;21.60;79.41;100207.25;4962001;28;8867;-77
2021/07/04 02:07:36;;;;;;;;;6.60;6.60;;;;;21.37;79.14;100205.06;4976659;28;8875;-77
2021/07/04 02:10:34;;;;;;;;;6.80;6.80;;;;;21.47;78.13;100207.00;4961345;28;9598;-77
2021/07/04 02:13:30;;;;;;;;;7.00;7.00;;;;;21.58;77.35;100204.06;4983741;28;9591;-77
2021/07/04 02:16:26;;;;;;;;;7.40;7.40;;;;;21.62;80.75;100204.81;4993781;28;8854;-76
2021/07/04 02:19:30;;;;;;;;;7.40;7.40;;;;;21.60;80.13;100191.19;4993449;28;8969;-77
2021/07/04 02:22:26;;;;;;;;;6.40;6.40;;;;;21.72;78.80;100201.13;4996376;28;8835;-77
2021/07/04 02:25:22;;;;;;;;;9.00;9.00;;;;;21.34;80.08;100203.91;4971272;28;8877;-77
2021/07/04 02:28:21;;;;;;;;;8.00;8.00;;;;;21.12;80.24;100208.09;4963291;28;8844;-76
2021/07/04 02:31:16;;;;;;;;;8.20;8.20;;;;;21.24;81.47;100204.78;4965365;28;8967;-77
2021/07/04 02:34:12;;;;;;;;;8.40;7.60;;;;;21.42;81.01;100204.63;4981584;28;8858;-77
2021/07/04 02:37:07;;;;;;;;;6.60;6.60;;;;;21.57;80.43;100206.09;4994520;28;8850;-76
2021/07/04 02:40:05;;;;;;;;;8.60;8.60;;;;;21.60;80.69;100204.44;4982435;28;8979;-76
2021/07/04 02:43:01;;;;;;;;;6.80;6.60;;;;;21.47;80.95;100200.56;4975152;28;8872;-76
2021/07/04 02:45:56;;;;;;;;;7.00;7.00;;;;;21.42;80.62;100203.84;4974441;28;8837;-76
2021/07/04 02:48:52;;;;;;;;;13.25;9.50;;;;;21.34;80.88;100198.28;4973717;28;8959;-77
2021/07/04 02:51:48;;;;;;;;;9.40;8.40;;;;;21.29;81.94;100203.56;4961978;28;8840;-76
2021/07/04 02:54:43;;;;;;;;;13.25;13.25;;;;;21.61;81.75;100203.22;4961262;28;8864;-76
2021/07/04 02:57:40;;;;;;;;;15.75;15.00;;;;;21.59;81.75;100202.84;4954288;28;9596;-77
2021/07/04 03:00:37;;;;;;;;;9.75;9.75;;;;;21.77;81.24;100211.09;4954364;28;8862;-77
2021/07/04 03:03:33;;;;;;;;;10.20;10.20;;;;;22.18;80.20;100213.88;4954297;28;8882;-77
2021/07/04 03:06:28;;;;;;;;;23.75;23.75;;;;;22.12;79.38;100216.34;4961125;28;8836;-76
2021/07/04 03:09:24;;;;;;;;;25.75;25.75;;;;;22.11;78.07;100208.34;4992604;28;8838;-77
2021/07/04 03:12:19;;;;;;;;;19.75;18.75;;;;;22.56;78.13;100214.56;4993267;28;8839;-76
2021/07/04 03:15:16;;;;;;;;;24.50;24.25;;;;;22.44;77.30;100204.66;4992959;28;8850;-77
2021/07/04 03:18:12;;;;;;;;;24.00;24.00;;;;;22.43;77.57;100202.28;4979950;28;9551;-77
2021/07/04 03:21:07;;;;;;;;;22.25;19.50;;;;;22.54;77.47;100199.28;4980299;28;8835;-75
2021/07/04 03:24:03;;;;;;;;;16.00;16.00;;;;;22.43;76.02;100202.28;4979589;28;8870;-77
2021/07/04 03:26:59;;;;;;;;;12.60;12.60;;;;;22.13;76.37;100211.53;4980758;28;8834;-76
2021/07/04 03:29:56;;;;;;;;;12.00;11.80;;;;;22.03;76.16;100209.63;4994153;28;8835;-76
2021/07/04 03:32:52;;;;;;;;;12.20;12.20;;;;;22.09;76.58;100211.59;4988372;28;9007;-76
2021/07/04 03:35:48;;;;;;;;;16.80;16.80;;;;;22.23;77.29;100209.78;4974920;28;8979;-76
2021/07/04 03:38:43;;;;;;;;;15.00;15.00;;;;;22.28;76.40;100198.06;4973600;28;8876;-75
2021/07/04 03:41:39;;;;;;;;;16.20;15.40;;;;;22.40;75.95;100198.28;4961020;28;8862;-77
2021/07/04 03:44:35;;;;;;;;;14.60;14.60;;;;;22.21;77.16;100196.13;4972844;28;8848;-77
2021/07/04 03:47:31;;;;;;;;;13.40;13.40;;;;;22.06;79.21;100189.84;4973422;28;8836;-75
2021/07/04 03:50:28;;;;;;;;;17.00;15.40;;;;;22.86;77.26;100185.56;4973303;28;8852;-75
2021/07/04 03:53:24;;;;;;;;;15.40;15.40;;;;;22.97;75.92;100196.66;4975172;28;8879;-75
2021/07/04 03:55:53;;;;;;;;;8.60;8.60;;;;;22.81;75.23;100193.66;4974543;28;8916;-76
2021/07/04 03:58:49;;;;;;;;;8.80;8.80;;;;;22.84;75.29;100193.59;4973572;28;8860;-76
2021/07/04 04:01:44;;;;;;;;;8.80;8.80;;;;;22.87;75.69;100192.81;4961139;28;8856;-76
2021/07/04 04:04:40;;;;;;;;;12.40;12.40;;;;;23.01;75.64;100188.97;4992236;28;8866;-76
2021/07/04 04:07:36;;;;;;;;;11.20;11.20;;;;;22.99;76.04;100197.81;4979911;28;9000;-75
2021/07/04 04:10:32;;;;;;;;;10.60;10.60;;;;;23.48;74.68;100200.22;4956580;28;9712;-75
2021/07/04 04:13:27;;;;;;;;;11.20;11.20;;;;;23.58;74.14;100197.19;4976225;28;8833;-76
2021/07/04 04:16:23;;;;;;;;;12.00;12.00;;;;;22.88;75.97;100194.38;4992701;28;8980;-76
2021/07/04 04:19:18;;;;;;;;;10.00;10.00;;;;;22.51;77.92;100188.88;4979506;28;8864;-76
2021/07/04 04:22:15;;;;;;;;;11.40;10.60;;;;;23.10;76.64;100205.34;4958017;28;8846;-76
2021/07/04 04:25:11;;;;;;;;;10.40;10.40;;;;;23.15;76.05;100208.44;4964978;28;8989;-75
2021/07/04 04:28:08;;;;;;;;;13.00;13.00;;;;;23.01;75.17;100189.75;4976746;28;8864;-77
2021/07/04 04:31:04;;;;;;;;;12.00;12.00;;;;;22.70;75.85;100185.41;4962856;28;8939;-75
2021/07/04 04:34:00;;;;;;;;;11.00;11.00;;;;;23.33;75.86;100196.06;4975515;28;8876;-76
2021/07/04 04:36:55;;;;;;;;;12.00;12.00;;;;;23.06;74.88;100201.75;4957631;28;8858;-76
2021/07/04 04:39:51;;;;;;;;;10.20;10.20;;;;;23.27;74.67;100187.28;4957787;28;8859;-77
2021/07/04 04:42:47;;;;;;;;;11.80;11.80;;;;;23.33;75.22;100177.13;4946405;28;8850;-76
2021/07/04 04:45:42;;;;;;;;;11.80;11.80;;;;;23.36;75.88;100184.72;4957256;28;8866;-76
2021/07/04 04:48:38;;;;;;;;;5.20;5.20;;;;;23.48;73.95;100184.09;4959883;28;8831;-76
2021/07/04 04:51:35;;;;;;;;;16.00;16.00;;;;;23.27;74.01;100190.13;4973326;28;8852;-78
2021/07/04 04:54:31;;;;;;;;;16.00;15.60;;;;;23.28;72.91;100191.72;4976631;28;8873;-75
2021/07/04 04:57:27;;;;;;;;;13.40;13.40;;;;;23.63;73.59;100175.41;4962743;28;8829;-77
2021/07/04 05:00:25;;;;;;;;;17.20;16.20;;;;;23.81;72.52;100170.19;4968225;28;8849;-76
2021/07/04 05:03:21;;;;;;;;;15.80;15.80;;;;;23.75;72.36;100158.59;4942335;28;8970;-75
2021/07/04 05:06:16;;;;;;;;;17.40;17.40;;;;;24.15;71.43;100164.22;4963116;28;8836;-75
2021/07/04 05:09:12;;;;;;;;;17.60;17.60;;;;;24.42;71.85;100163.28;4963036;28;8852;-75
2021/07/04 05:11:40;;;;;;;;;16.40;15.60;;;;;24.64;70.69;100162.34;4992457;28;8857;-75
2021/07/04 05:14:36;;;;;;;;;17.00;17.00;;;;;24.92;70.18;100157.22;4944196;28;8954;-79
2021/07/04 05:17:05;;;;;;;;;15.20;15.20;;;;;24.93;70.07;100153.97;4957112;28;8858;-78
2021/07/04 05:20:01;;;;;;;;;15.00;15.00;;;;;25.14;68.89;100152.63;4972012;28;8838;-77
2021/07/04 05:22:56;;;;;;;;;26.20;25.80;;;;;25.32;68.80;100143.69;4978083;28;9614;-80
2021/07/04 05:25:58;;;;;;;;;40.50;35.75;;;;;25.48;68.42;100138.00;4962598;28;8914;-79
2021/07/04 05:28:47;;;;;;;;;86.00;86.00;;;;;25.67;68.24;100135.44;4979920;28;8857;-78
2021/07/04 05:31:43;;;;;;;;;168.33;168.33;;;;;25.87;67.66;100129.66;4995119;28;11493;-75
2021/07/04 05:34:38;;;;;;;;;18.60;18.60;;;;;25.83;66.34;100128.97;4978897;28;8916;-75
2021/07/04 05:37:35;;;;;;;;;101.25;100.50;;;;;25.94;67.06;100118.13;4982168;28;8858;-75
2021/07/04 05:40:30;;;;;;;;;53.00;44.75;;;;;25.87;66.47;100130.44;4971187;28;12353;-76
2021/07/04 05:43:26;;;;;;;;;21.80;21.80;;;;;26.04;66.89;100120.63;4955540;28;9635;-75
2021/07/04 05:46:22;;;;;;;;;44.60;38.60;;;;;26.18;66.34;100133.56;4955516;28;8846;-75
2021/07/04 05:49:18;;;;;;;;;19.40;19.40;;;;;26.20;65.90;100136.75;4955608;28;8843;-76
2021/07/04 05:52:14;;;;;;;;;15.00;15.00;;;;;26.36;65.46;100133.00;4957266;28;8886;-76
2021/07/04 05:55:10;;;;;;;;;12.20;12.20;;;;;26.48;65.12;100132.25;4957478;28;8889;-77
2021/07/04 05:58:05;;;;;;;;;27.40;27.20;;;;;26.63;65.25;100123.31;4942085;28;8847;-77
2021/07/04 06:01:01;;;;;;;;;15.20;14.60;;;;;26.60;63.94;100122.94;4955468;28;8886;-75
2021/07/04 06:03:56;;;;;;;;;34.80;32.60;;;;;26.67;63.47;100132.47;4942281;28;8859;-76
2021/07/04 06:06:52;;;;;;;;;18.00;18.00;;;;;26.91;65.09;100135.72;4956360;28;8847;-76
2021/07/04 06:09:48;;;;;;;;;16.40;16.40;;;;;26.81;64.35;100138.47;4955676;28;8855;-76
2021/07/04 06:12:43;;;;;;;;;32.60;31.20;;;;;26.97;63.28;100143.22;4954445;28;8878;-77
2021/07/04 06:15:39;;;;;;;;;22.40;22.40;;;;;27.23;63.71;100138.31;4942766;28;8857;-77
2021/07/04 06:18:34;;;;;;;;;26.20;26.20;;;;;27.23;61.67;100138.31;4955440;28;8855;-77
2021/07/04 06:21:32;;;;;;;;;14.00;14.00;;;;;27.43;61.24;100135.94;4955485;28;8838;-76
2021/07/04 06:24:27;;;;;;;;;15.20;15.20;;;;;27.49;61.06;100130.47;4942748;28;8862;-77
2021/07/04 06:27:23;;;;;;;;;15.40;14.00;;;;;27.66;60.80;100122.56;4955225;28;8854;-76
2021/07/04 06:30:20;;;;;;;;;11.20;11.20;;;;;27.70;60.17;100126.91;4944163;28;8870;-76
2021/07/04 06:33:16;;;;;;;;;16.20;16.20;;;;;27.72;60.32;100125.63;4956858;28;8842;-76
2021/07/04 06:36:12;;;;;;;;;14.20;13.20;;;;;27.92;60.33;100123.25;4954632;28;8893;-78
2021/07/04 06:39:08;;;;;;;;;11.80;11.80;;;;;27.95;59.25;100125.16;4954500;28;8859;-75
2021/07/04 06:42:04;;;;;;;;;10.60;10.60;;;;;27.82;59.64;100124.44;4956536;28;9666;-76
2021/07/04 06:45:00;;;;;;;;;11.20;11.20;;;;;28.05;59.36;100117.47;4941659;28;8847;-75
2021/07/04 06:47:55;;;;;;;;;12.40;12.40;;;;;28.12;58.49;100117.19;4941542;28;8874;-74
2021/07/04 06:50:51;;;;;;;;;13.20;13.20;;;;;28.05;58.56;100106.09;4954285;28;8850;-77
2021/07/04 06:53:46;;;;;;;;;7.20;7.20;;;;;28.36;58.42;100108.97;4954166;28;9633;-78
2021/07/04 06:56:42;;;;;;;;;10.00;10.00;;;;;28.09;55.92;100110.41;4954270;28;8855;-75
2021/07/04 06:59:37;;;;;;;;;8.20;8.20;;;;;28.07;57.06;100101.56;4954492;28;8873;-76
2021/07/04 07:02:33;;;;;;;;;11.20;11.20;;;;;28.58;56.63;100100.38;4943192;28;8869;-75
2021/07/04 07:05:29;;;;;;;;;11.00;11.00;;;;;28.65;56.89;100102.94;4954045;28;8873;-75
2021/07/04 07:08:25;;;;;;;;;6.00;6.00;;;;;28.98;56.91;100103.19;4956031;28;8842;-75
2021/07/04 07:11:20;;;;;;;;;9.20;9.20;;;;;29.02;55.45;100109.53;4955049;28;8866;-76
2021/07/04 07:14:16;;;;;;;;;10.60;10.60;;;;;29.17;55.49;100101.94;4957210;28;8940;-76
2021/07/04 07:17:12;;;;;;;;;7.80;7.80;;;;;29.25;54.47;100106.06;4941393;29;9602;-75
2021/07/04 07:20:09;;;;;;;;;10.60;10.60;;;;;29.55;54.89;100095.03;4943405;29;8969;-76
2021/07/04 07:23:05;;;;;;;;;8.60;8.20;;;;;29.37;53.66;100095.81;4955161;28;8843;-76
2021/07/04 07:26:01;;;;;;;;;9.20;9.20;;;;;29.55;52.08;100090.13;4955450;28;8847;-75
2021/07/04 07:28:57;;;;;;;;;7.80;7.80;;;;;29.21;51.37;100088.34;4954102;29;8851;-75
2021/07/04 07:31:53;;;;;;;;;5.80;5.80;;;;;29.22;52.25;100084.25;4942403;28;8839;-75
2021/07/04 07:34:48;;;;;;;;;7.60;7.60;;;;;29.38;51.15;100083.13;4954056;29;8854;-75
2021/07/04 07:37:45;;;;;;;;;11.40;11.40;;;;;29.43;51.81;100076.00;4953770;28;8869;-74
2021/07/04 07:40:41;;;;;;;;;8.20;8.20;;;;;29.75;50.26;100068.84;4963286;28;8869;-74
2021/07/04 07:43:37;;;;;;;;;7.40;7.40;;;;;29.80;48.57;100071.06;4978730;28;8844;-72
2021/07/04 07:46:33;;;;;;;;;7.00;7.00;;;;;29.86;49.88;100067.09;4974941;28;8866;-73
2021/07/04 07:49:33;;;;;;;;;6.80;6.80;;;;;29.86;49.55;100080.56;4974637;28;8821;-73
2021/07/04 07:52:32;;;;;;;;;7.60;7.60;;;;;29.74;48.67;100081.53;4952966;29;8967;-74
2021/07/04 07:55:27;;;;;;;;;7.80;7.80;;;;;30.28;47.43;100074.88;4963729;28;8856;-76
2021/07/04 07:58:23;;;;;;;;;5.00;5.00;;;;;30.15;47.32;100089.38;4976882;28;8870;-74
2021/07/04 08:01:19;;;;;;;;;8.40;8.40;;;;;30.00;46.05;100085.59;4981911;28;8876;-73
2021/07/04 08:04:15;;;;;;;;;6.60;6.60;;;;;30.47;47.66;100092.72;4970554;28;8852;-74
2021/07/04 08:07:11;;;;;;;;;6.40;6.40;;;;;30.54;45.70;100094.44;4970957;28;8844;-74
2021/07/04 08:10:07;;;;;;;;;8.60;8.60;;;;;31.03;46.18;100101.78;4977555;28;8868;-74
2021/07/04 08:13:04;;;;;;;;;6.40;6.40;;;;;31.12;45.32;100107.41;4983525;28;8838;-74
2021/07/04 08:16:00;;;;;;;;;5.60;5.60;;;;;31.07;44.23;100105.25;4971026;28;9043;-73
2021/07/04 08:18:58;;;;;;;;;4.40;4.40;;;;;31.23;44.55;100104.84;4971462;28;8842;-73
2021/07/04 08:21:54;;;;;;;;;4.40;4.40;;;;;30.71;43.44;100104.19;4956733;28;9545;-73
2021/07/04 08:24:49;;;;;;;;;5.00;5.00;;;;;30.95;42.18;100107.06;4962901;28;8849;-73
2021/07/04 08:27:45;;;;;;;;;4.40;4.40;;;;;30.62;42.89;100093.59;4973098;28;8864;-74
2021/07/04 08:30:41;;;;;;;;;4.00;4.00;;;;;30.66;42.44;100096.28;4979256;28;8855;-73
2021/07/04 08:33:37;;;;;;;;;3.00;3.00;;;;;30.60;41.93;100095.38;4957098;28;8946;-73
2021/07/04 08:36:20;;;;;;;;;4.00;4.00;;;;;30.76;43.08;100095.00;4967545;28;8951;-73
2021/07/04 08:38:49;;;;;;;;;4.00;4.00;;;;;30.82;44.17;100089.38;4958192;28;8847;-73
2021/07/04 08:41:17;;;;;;;;;4.00;4.00;;;;;30.92;43.13;100079.50;4956902;28;8876;-74
2021/07/04 08:44:07;;;;;;;;;3.80;3.80;;;;;31.04;42.98;100078.44;4952494;28;8965;-73
2021/07/04 08:46:40;;;;;;;;;3.20;3.20;;;;;31.53;43.36;100077.13;4968531;28;9572;-72
2021/07/04 08:49:22;;;;;;;;;5.80;5.80;;;;;31.59;42.40;100074.34;4956245;28;8878;-73
2021/07/04 08:52:18;;;;;;;;;5.00;5.00;;;;;31.59;42.19;100075.16;4956534;28;8851;-74
2021/07/04 08:55:16;;;;;;;;;4.60;4.60;;;;;31.90;43.62;100065.31;4957979;28;8856;-74
2021/07/04 08:58:18;;;;;;;;;5.00;5.00;;;;;32.05;43.52;100071.81;4943759;28;8850;-74
2021/07/04 09:01:25;;;;;;;;;5.20;5.20;;;;;32.23;42.25;100065.13;4922348;29;8852;-74
2021/07/04 09:04:14;;;;;;;;;4.20;4.20;;;;;32.55;41.95;100066.16;4914837;29;8933;-74
2021/07/04 09:06:48;;;;;;;;;4.60;4.60;;;;;32.77;41.70;100059.94;4943291;29;8868;-74
2021/07/04 09:09:55;;;;;;;;;5.00;5.00;;;;;32.24;41.09;100049.53;4931052;29;8876;-73
2021/07/04 09:12:55;;;;;;;;;4.60;4.60;;;;;32.31;41.81;100043.38;4937192;29;8853;-74
2021/07/04 09:16:05;;;;;;;;;5.00;5.00;;;;;32.06;40.09;100047.69;4938396;29;8891;-73
2021/07/04 09:19:09;;;;;;;;;7.00;7.00;;;;;32.49;40.78;100053.81;4956108;28;9005;-73
2021/07/04 09:21:37;;;;;;;;;6.60;6.20;;;;;32.34;41.44;100042.41;4949615;29;8851;-74
2021/07/04 09:24:35;;;;;;;;;2.00;2.00;;;;;32.62;40.30;100042.84;4937045;29;8864;-72
2021/07/04 09:27:31;;;;;;;;;6.00;6.00;;;;;32.81;41.42;100032.66;4967347;28;8846;-73
2021/07/04 09:30:41;;;;;;;;;6.00;6.00;;;;;32.73;40.15;100040.09;4975758;28;8870;-73
2021/07/04 09:33:37;;;;;;;;;4.20;4.20;;;;;32.56;40.87;100024.78;4975340;28;8854;-72
2021/07/04 09:36:36;;;;;;;;;6.20;6.20;;;;;33.10;40.63;100022.38;4965485;28;8842;-73
2021/07/04 09:39:31;;;;;;;;;9.40;9.40;;;;;33.19;41.13;100008.66;4970568;28;8836;-72
2021/07/04 09:42:11;;;;;;;;;6.80;6.80;;;;;32.79;40.75;100023.00;4979010;28;8978;-74
2021/07/04 09:44:39;;;;;;;;;6.00;6.00;;;;;32.68;40.24;100020.00;4978692;28;8907;-73
2021/07/04 09:47:12;;;;;;;;;7.20;7.20;;;;;32.71;40.45;100008.34;4990643;28;8842;-73
2021/07/04 09:49:41;;;;;;;;;6.80;6.80;;;;;32.87;40.01;100001.28;4970018;28;8864;-73
2021/07/04 09:52:36;;;;;;;;;5.00;5.00;;;;;33.18;39.47;99997.72;4975674;28;8875;-73
2021/07/04 09:55:34;;;;;;;;;8.00;8.00;;;;;33.17;39.68;100001.88;4975211;28;8855;-72
2021/07/04 09:58:33;;;;;;;;;7.60;7.60;;;;;33.50;40.78;99992.06;4975094;28;8872;-73
2021/07/04 10:01:43;;;;;;;;;0.00;0.00;;;;;33.80;39.63;99987.66;4974531;28;8837;-73
2021/07/04 10:04:39;;;;;;;;;5.80;5.80;;;;;33.11;40.63;99987.50;4955580;28;8871;-72
2021/07/04 10:07:06;;;;;;;;;5.80;5.80;;;;;33.07;41.16;99989.03;4970664;28;8871;-72
2021/07/04 10:09:48;;;;;;;;;5.60;5.60;;;;;32.98;42.00;99986.31;4975415;28;8967;-71
2021/07/04 10:12:17;;;;;;;;;8.00;8.00;;;;;32.90;41.85;99981.03;4976071;28;9560;-73
2021/07/04 10:14:49;;;;;;;;;8.80;8.80;;;;;32.94;42.32;99986.53;4981837;28;8870;-72
2021/07/04 10:17:45;;;;;;;;;8.40;8.40;;;;;32.97;42.61;99979.00;4977103;28;8845;-72
2021/07/04 10:20:42;;;;;;;;;7.80;7.80;;;;;33.01;42.76;99976.72;4981588;28;8836;-72
2021/07/04 10:23:41;;;;;;;;;9.60;9.60;;;;;33.22;42.98;99974.59;4993046;28;8875;-72
2021/07/04 10:26:39;;;;;;;;;7.40;7.40;;;;;32.96;43.02;99977.44;4993758;28;8848;-72
2021/07/04 10:29:35;;;;;;;;;8.60;8.60;;;;;32.82;43.40;99967.59;4993563;28;8874;-72
2021/07/04 10:32:26;;;;;;;;;9.20;9.20;;;;;32.99;43.13;99982.16;4979750;28;8869;-72
2021/07/04 10:35:21;;;;;;;;;11.00;11.00;;;;;32.77;42.56;99965.47;4975820;28;8865;-73
2021/07/04 10:37:48;;;;;;;;;8.60;8.60;;;;;33.07;42.87;99963.25;4975217;28;8879;-72
2021/07/04 10:40:44;;;;;;;;;9.40;9.40;;;;;33.57;44.16;99960.88;4974792;28;8911;-73
2021/07/04 10:43:57;;;;;;;;;10.00;10.00;;;;;33.16;42.63;99963.84;4987800;28;8838;-73
2021/07/04 10:46:55;;;;;;;;;10.80;10.80;;;;;33.64;43.52;99959.63;4993958;28;9004;-73
2021/07/04 10:50:06;;;;;;;;;10.00;10.00;;;;;33.38;43.28;99966.19;4980166;28;8834;-72
2021/07/04 10:53:03;;;;;;;;;9.60;8.00;;;;;33.92;41.46;99949.22;4984014;28;8862;-73
2021/07/04 10:55:33;;;;;;;;;7.40;7.40;;;;;34.26;41.58;99964.53;4974696;28;8840;-73
2021/07/04 10:58:09;;;;;;;;;6.80;6.80;;;;;34.17;40.59;99959.00;4976076;28;8841;-72
2021/07/04 11:01:05;;;;;;;;;8.00;8.00;;;;;33.92;41.11;99949.22;4955602;28;8914;-73
2021/07/04 11:04:37;;;;;;;;;7.00;7.00;;;;;33.82;41.12;99938.44;4955793;28;8862;-73
2021/07/04 11:07:54;;;;;;;;;8.00;8.00;;;;;34.26;41.86;99944.44;4967839;28;8867;-73
2021/07/04 11:10:24;;;;;;;;;9.60;9.60;;;;;34.34;42.31;99936.16;4994544;28;8875;-72
2021/07/04 11:13:20;;;;;;;;;9.40;9.40;;;;;34.25;42.18;99928.53;4964592;28;8880;-72
2021/07/04 11:16:22;;;;;;;;;8.00;8.00;;;;;33.97;41.75;99927.56;4954333;28;9045;-72
2021/07/04 11:19:18;;;;;;;;;8.00;8.00;;;;;34.16;42.02;99927.97;4962786;28;8879;-73
2021/07/04 11:21:49;;;;;;;;;7.20;7.20;;;;;34.61;42.83;99928.22;4973893;28;8845;-73
2021/07/04 11:24:45;;;;;;;;;8.20;8.20;;;;;34.30;40.72;99927.00;4974190;28;9019;-73
2021/07/04 11:27:40;;;;;;;;;7.00;7.00;;;;;34.52;41.96;99929.22;4968562;28;8833;-73
2021/07/04 11:30:31;;;;;;;;;8.40;8.40;;;;;34.52;41.31;99926.34;4957966;28;8885;-73
2021/07/04 11:33:21;;;;;;;;;8.80;8.80;;;;;34.32;42.38;99926.50;4955548;28;8827;-72
2021/07/04 11:35:52;;;;;;;;;8.00;8.00;;;;;34.40;41.04;99931.25;4984393;28;8857;-72
2021/07/04 11:38:49;;;;;;;;;9.80;9.80;;;;;34.83;41.92;99937.69;4973558;28;8914;-74
2021/07/04 11:41:45;;;;;;;;;6.60;6.60;;;;;34.23;40.27;99938.97;4985873;28;8872;-72
2021/07/04 11:44:40;;;;;;;;;5.00;5.00;;;;;34.18;41.09;99939.72;4958077;28;8869;-72
2021/07/04 11:47:36;;;;;;;;;6.60;6.60;;;;;34.16;40.15;99943.09;4977577;28;8959;-73
2021/07/04 11:50:47;;;;;;;;;9.60;9.60;;;;;34.06;40.54;99947.47;4991393;28;8845;-73
2021/07/04 11:53:45;;;;;;;;;8.00;8.00;;;;;34.34;40.69;99943.97;4997312;28;8820;-72
2021/07/04 11:56:43;;;;;;;;;6.20;6.20;;;;;34.58;41.14;99940.72;4963798;28;8847;-72
2021/07/04 11:59:38;;;;;;;;;7.40;7.40;;;;;34.17;39.96;99941.00;4997090;28;9560;-71
2021/07/04 12:02:44;;;;;;;;;8.40;8.40;;;;;34.67;40.29;99943.38;4981946;28;8885;-73
2021/07/04 12:05:32;;;;;;;;;6.20;6.20;;;;;34.67;39.72;99949.13;4977058;28;8863;-73
2021/07/04 12:08:27;;;;;;;;;9.20;9.20;;;;;34.54;39.84;99938.09;4957626;28;8850;-74
2021/07/04 12:12:02;;;;;;;;;11.20;11.20;;;;;34.70;40.30;99937.38;4976000;28;8859;-74
2021/07/04 12:15:05;;;;;;;;;8.00;8.00;;;;;34.17;40.87;99933.19;4895448;29;8857;-72
2021/07/04 12:17:39;;;;;;;;;7.80;7.80;;;;;34.42;39.94;99940.13;4880923;29;8869;-74
2021/07/04 12:20:26;;;;;;;;;7.60;7.60;;;;;34.22;40.42;99946.00;4961502;28;8858;-71
2021/07/04 12:23:22;;;;;;;;;9.00;9.00;;;;;34.73;41.46;99950.69;4966582;28;9552;-72
2021/07/04 12:25:49;;;;;;;;;9.20;9.20;;;;;34.41;41.26;99946.38;4972611;28;8871;-70
2021/07/04 12:28:48;;;;;;;;;8.80;8.40;;;;;34.50;41.25;99941.19;4964988;28;8972;-71
2021/07/04 12:31:15;;;;;;;;;10.40;10.40;;;;;34.90;40.34;99952.84;4976851;28;8897;-71
2021/07/04 12:34:12;;;;;;;;;8.20;8.20;;;;;35.31;40.53;99944.59;4987886;28;8862;-71
2021/07/04 12:37:08;;;;;;;;;10.00;10.00;;;;;34.78;41.28;99943.41;4979772;28;8860;-73
2021/07/04 12:40:06;;;;;;;;;10.80;10.80;;;;;35.19;40.11;99949.53;4956222;28;8843;-72
2021/07/04 12:43:14;;;;;;;;;11.40;11.40;;;;;35.24;40.61;99945.91;4955823;28;8855;-73
2021/07/04 12:46:24;;;;;;;;;6.80;6.80;;;;;35.16;41.46;99932.56;4944430;28;8835;-72
2021/07/04 12:49:20;;;;;;;;;7.00;7.00;;;;;34.99;41.44;99926.78;4975001;28;8864;-73
2021/07/04 12:52:16;;;;;;;;;10.40;10.40;;;;;35.42;41.02;99920.84;4976345;28;8875;-72
2021/07/04 12:55:11;;;;;;;;;13.00;13.00;;;;;35.21;42.04;99929.72;4962551;28;8826;-72
2021/07/04 12:58:23;;;;;;;;;12.00;11.00;;;;;35.46;41.62;99916.41;4956320;28;8978;-72
2021/07/04 13:01:32;;;;;;;;;10.80;10.80;;;;;36.10;40.72;99916.63;4956508;28;8866;-72
2021/07/04 13:04:28;;;;;;;;;10.00;10.00;;;;;36.54;40.67;99920.69;4958052;28;8965;-72
2021/07/04 13:07:24;;;;;;;;;9.60;9.20;;;;;35.91;40.76;99911.44;4957301;28;8914;-71
2021/07/04 13:10:33;;;;;;;;;10.80;10.80;;;;;36.22;40.22;99906.66;4955576;28;8926;-72
2021/07/04 13:13:29;;;;;;;;;7.40;7.40;;;;;35.99;40.45;99923.19;4956632;28;8851;-72
2021/07/04 13:16:25;;;;;;;;;8.40;8.40;;;;;36.08;40.20;99908.53;4955745;28;8867;-71
2021/07/04 13:19:22;;;;;;;;;10.40;10.40;;;;;35.83;40.88;99898.88;4944146;29;8888;-72
2021/07/04 13:21:52;;;;;;;;;9.80;9.80;;;;;35.51;40.55;99909.13;4937533;29;8991;-73
2021/07/04 13:25:22;;;;;;;;;10.60;10.60;;;;;35.39;40.11;99902.53;4938358;29;8845;-72
2021/07/04 13:28:17;;;;;;;;;9.80;9.80;;;;;35.70;39.92;99900.72;4936457;29;8967;-72
2021/07/04 13:30:53;;;;;;;;;9.80;9.40;;;;;35.77;39.92;99895.22;4938701;29;8932;-73
2021/07/04 13:33:48;;;;;;;;;8.60;8.60;;;;;35.85;40.02;99895.47;4936467;28;8888;-72
2021/07/04 13:36:17;;;;;;;;;11.40;11.40;;;;;35.49;40.12;99888.72;4967420;28;8869;-73